createdAt,value
2022-10-05T00:00:29.181Z,101071.00
2022-10-05T00:02:56.980Z,101078.00
2022-10-05T00:05:30.377Z,101083.00
2022-10-05T00:08:02.641Z,101083.00
2022-10-05T00:10:30.607Z,101069.00
2022-10-05T00:12:58.358Z,101075.00
2022-10-05T00:15:26.071Z,101075.00
2022-10-05T00:17:55.137Z,101073.00
2022-10-05T00:20:25.071Z,101066.00
2022-10-05T00:22:58.422Z,101065.00
2022-10-05T00:25:26.525Z,101065.00
2022-10-05T00:27:57.480Z,101053.00
2022-10-05T00:30:27.376Z,101045.00
2022-10-05T00:32:59.614Z,101048.00
2022-10-05T00:35:29.328Z,101047.00
2022-10-05T00:37:57.503Z,101063.00
2022-10-05T00:40:37.797Z,101063.00
2022-10-05T00:43:24.311Z,101064.00
2022-10-05T00:45:56.903Z,101069.00
2022-10-05T00:48:32.594Z,101076.00
2022-10-05T00:51:10.644Z,101057.00
2022-10-05T00:53:44.449Z,101061.00
2022-10-05T00:56:24.700Z,101065.00
2022-10-05T00:59:03.003Z,101057.00
2022-10-05T01:01:34.701Z,101052.00
2022-10-05T01:04:13.896Z,101057.00
2022-10-05T01:06:53.693Z,101054.00
2022-10-05T01:09:31.350Z,101063.00
2022-10-05T01:12:07.555Z,101059.00
2022-10-05T01:14:43.206Z,101060.00
2022-10-05T01:17:17.083Z,101061.00
2022-10-05T01:20:07.988Z,101057.00
2022-10-05T01:22:51.706Z,101058.00
2022-10-05T01:25:26.135Z,101050.00
2022-10-05T01:28:03.117Z,101052.00
2022-10-05T01:30:34.281Z,101053.00
2022-10-05T01:33:09.601Z,101051.00
2022-10-05T01:35:50.506Z,101037.00
2022-10-05T01:38:30.447Z,101030.00
2022-10-05T01:41:09.201Z,101039.00
2022-10-05T01:43:45.361Z,101027.00
2022-10-05T01:46:25.994Z,101027.00
2022-10-05T01:49:18.451Z,101022.00
2022-10-05T01:51:54.777Z,101027.00
2022-10-05T01:54:32.212Z,101018.00
2022-10-05T01:57:11.001Z,101008.00
2022-10-05T01:59:57.447Z,101011.00
2022-10-05T02:02:26.239Z,100997.00
2022-10-05T02:05:02.777Z,101004.00
2022-10-05T02:07:37.594Z,101015.00
2022-10-05T02:10:11.523Z,101005.00
2022-10-05T02:12:39.459Z,101004.00
2022-10-05T02:15:15.584Z,100998.00
2022-10-05T02:17:47.102Z,100989.00
2022-10-05T02:20:19.938Z,100989.00
2022-10-05T02:22:50.824Z,100985.00
2022-10-05T02:25:22.255Z,100984.00
2022-10-05T02:27:54.298Z,100990.00
2022-10-05T02:30:23.844Z,100985.00
2022-10-05T02:32:56.301Z,100980.00
2022-10-05T02:35:24.174Z,100974.00
2022-10-05T02:38:02.845Z,100967.00
2022-10-05T02:40:42.310Z,100973.00
2022-10-05T02:43:22.025Z,100976.00
2022-10-05T02:45:58.386Z,100988.00
2022-10-05T02:48:35.359Z,100983.00
2022-10-05T02:51:12.067Z,100984.00
2022-10-05T02:53:46.307Z,100996.00
2022-10-05T02:56:21.532Z,100981.00
2022-10-05T02:58:59.657Z,100975.00
2022-10-05T03:01:33.249Z,100963.00
2022-10-05T03:04:13.512Z,100955.00
2022-10-05T03:06:51.474Z,100961.00
2022-10-05T03:09:23.370Z,100959.00
2022-10-05T03:11:59.191Z,100960.00
2022-10-05T03:14:34.165Z,100945.00
2022-10-05T03:17:13.919Z,100949.00
2022-10-05T03:20:04.093Z,100955.00
2022-10-05T03:22:43.641Z,100964.00
2022-10-05T03:25:34.506Z,100956.00
2022-10-05T03:28:08.189Z,100949.00
2022-10-05T03:30:43.251Z,100960.00
2022-10-05T03:33:18.510Z,100960.00
2022-10-05T03:35:54.215Z,100954.00
2022-10-05T03:38:31.061Z,100946.00
2022-10-05T03:41:03.076Z,100945.00
2022-10-05T03:43:55.560Z,100949.00
2022-10-05T03:46:33.616Z,100933.00
2022-10-05T03:49:11.983Z,100923.00
2022-10-05T03:51:44.437Z,100940.00
2022-10-05T03:54:17.573Z,100930.00
2022-10-05T03:56:52.341Z,100923.00
2022-10-05T03:59:25.230Z,100918.00
2022-10-05T04:01:57.745Z,100920.00
2022-10-05T04:04:32.495Z,100921.00
2022-10-05T04:07:02.226Z,100920.00
2022-10-05T04:09:36.477Z,100928.00
2022-10-05T04:12:14.240Z,100922.00
2022-10-05T04:14:46.991Z,100913.00
2022-10-05T04:17:18.602Z,100900.00
2022-10-05T04:19:57.486Z,100891.00
2022-10-05T04:22:31.979Z,100895.00
2022-10-05T04:25:03.870Z,100890.00
2022-10-05T04:27:35.733Z,100885.00
2022-10-05T04:30:08.122Z,100882.00
2022-10-05T04:32:38.931Z,100882.00
2022-10-05T04:35:30.383Z,100885.00
2022-10-05T04:38:07.128Z,100886.00
2022-10-05T04:40:47.438Z,100884.00
2022-10-05T04:43:20.705Z,100892.00
2022-10-05T04:46:08.000Z,100879.00
2022-10-05T04:48:52.736Z,100873.00
2022-10-05T04:51:36.473Z,100874.00
2022-10-05T04:54:15.317Z,100879.00
2022-10-05T04:56:47.163Z,100869.00
2022-10-05T04:59:40.219Z,100870.00
2022-10-05T05:02:20.395Z,100870.00
2022-10-05T05:05:06.976Z,100882.00
2022-10-05T05:07:46.141Z,100882.00
2022-10-05T05:10:51.468Z,100886.00
2022-10-05T05:13:51.269Z,100893.00
2022-10-05T05:16:28.366Z,100890.00
2022-10-05T05:19:14.066Z,100878.00
2022-10-05T05:21:50.796Z,100876.00
2022-10-05T05:24:26.030Z,100886.00
2022-10-05T05:27:10.389Z,100892.00
2022-10-05T05:29:53.193Z,100899.00
2022-10-05T05:32:33.955Z,100892.00
2022-10-05T05:35:19.234Z,100899.00
2022-10-05T05:37:53.662Z,100899.00
2022-10-05T05:40:27.983Z,100910.00
2022-10-05T05:42:59.995Z,100904.00
2022-10-05T05:45:38.393Z,100906.00
2022-10-05T05:48:17.259Z,100912.00
2022-10-05T05:50:54.198Z,100910.00
2022-10-05T05:53:26.509Z,100900.00
2022-10-05T05:56:01.082Z,100902.00
2022-10-05T05:58:33.333Z,100904.00
2022-10-05T06:01:05.129Z,100898.00
2022-10-05T06:03:38.557Z,100888.00
2022-10-05T06:06:10.796Z,100898.00
2022-10-05T06:08:42.669Z,100899.00
2022-10-05T06:11:17.273Z,100901.00
2022-10-05T06:13:45.195Z,100894.00
2022-10-05T06:16:19.930Z,100893.00
2022-10-05T06:18:51.302Z,100897.00
2022-10-05T06:21:24.428Z,100891.00
2022-10-05T06:23:57.670Z,100897.00
2022-10-05T06:26:40.664Z,100882.00
2022-10-05T06:29:13.859Z,100901.00
2022-10-05T06:32:02.279Z,100896.00
2022-10-05T06:34:44.127Z,100895.00
2022-10-05T06:37:18.779Z,100897.00
2022-10-05T06:40:14.290Z,100902.00
2022-10-05T06:43:23.501Z,100914.00
2022-10-05T06:46:04.625Z,100907.00
2022-10-05T06:48:46.161Z,100905.00
2022-10-05T06:51:23.230Z,100916.00
2022-10-05T06:54:04.114Z,100913.00
2022-10-05T06:56:39.448Z,100909.00
2022-10-05T06:59:13.567Z,100900.00
2022-10-05T07:01:53.602Z,100906.00
2022-10-05T07:04:43.852Z,100890.00
2022-10-05T07:07:18.182Z,100897.00
2022-10-05T07:09:55.242Z,100889.00
2022-10-05T07:12:41.380Z,100894.00
2022-10-05T07:15:26.532Z,100897.00
2022-10-05T07:18:06.178Z,100893.00
2022-10-05T07:20:46.831Z,100900.00
2022-10-05T07:23:27.395Z,100897.00
2022-10-05T07:26:04.255Z,100900.00
2022-10-05T07:28:41.714Z,100907.00
2022-10-05T07:31:15.552Z,100895.00
2022-10-05T07:33:51.047Z,100905.00
2022-10-05T07:36:40.998Z,100900.00
2022-10-05T07:39:17.356Z,100891.00
2022-10-05T07:41:48.532Z,100894.00
2022-10-05T07:44:23.606Z,100894.00
2022-10-05T07:46:55.442Z,100893.00
2022-10-05T07:49:34.074Z,100902.00
2022-10-05T07:52:05.710Z,100882.00
2022-10-05T07:54:47.090Z,100884.00
2022-10-05T07:57:22.207Z,100887.00
2022-10-05T07:59:57.713Z,100894.00
2022-10-05T08:02:30.047Z,100886.00
2022-10-05T08:05:04.426Z,100892.00
2022-10-05T08:07:35.887Z,100895.00
2022-10-05T08:10:17.826Z,100898.00
2022-10-05T08:13:00.609Z,100895.00
2022-10-05T08:15:34.412Z,100893.00
2022-10-05T08:18:06.060Z,100889.00
2022-10-05T08:20:42.570Z,100887.00
2022-10-05T08:23:21.851Z,100891.00
2022-10-05T08:25:59.205Z,100896.00
2022-10-05T08:28:31.733Z,100901.00
2022-10-05T08:31:04.359Z,100906.00
2022-10-05T08:33:39.866Z,100899.00
2022-10-05T08:36:13.649Z,100906.00
2022-10-05T08:38:42.505Z,100915.00
2022-10-05T08:41:33.895Z,100902.00
2022-10-05T08:44:44.095Z,100909.00
2022-10-05T08:47:37.202Z,100900.00
2022-10-05T08:50:26.823Z,100902.00
2022-10-05T08:53:19.324Z,100902.00
2022-10-05T08:56:03.268Z,100905.00
2022-10-05T08:59:35.858Z,100909.00
2022-10-05T09:02:25.023Z,100902.00
2022-10-05T09:05:11.563Z,100921.00
2022-10-05T09:08:15.300Z,100918.00
2022-10-05T09:11:03.731Z,100914.00
2022-10-05T09:14:15.393Z,100918.00
2022-10-05T09:16:58.858Z,100912.00
2022-10-05T09:19:50.683Z,100915.00
2022-10-05T09:22:35.600Z,100918.00
2022-10-05T09:25:17.118Z,100911.00
2022-10-05T09:27:57.314Z,100915.00
2022-10-05T09:30:51.465Z,100917.00
2022-10-05T09:34:07.858Z,100918.00
2022-10-05T09:37:14.750Z,100916.00
2022-10-05T09:40:13.595Z,100913.00
2022-10-05T09:43:17.040Z,100935.00
2022-10-05T09:46:29.939Z,100907.00
2022-10-05T09:49:17.467Z,100914.00
2022-10-05T09:52:19.120Z,100918.00
2022-10-05T09:55:21.859Z,100921.00
2022-10-05T09:58:30.436Z,100921.00
2022-10-05T10:01:28.999Z,100914.00
2022-10-05T10:04:30.990Z,100914.00
2022-10-05T10:07:36.368Z,100903.00
2022-10-05T10:10:34.318Z,100914.00
2022-10-05T10:13:21.290Z,100911.00
2022-10-05T10:16:34.050Z,100901.00
2022-10-05T10:19:43.206Z,100907.00
2022-10-05T10:22:50.983Z,100907.00
2022-10-05T10:25:32.485Z,100903.00
2022-10-05T10:28:19.415Z,100906.00
2022-10-05T10:31:07.008Z,100903.00
2022-10-05T10:34:21.840Z,100903.00
2022-10-05T10:37:07.021Z,100895.00
2022-10-05T10:39:48.775Z,100896.00
2022-10-05T10:42:35.286Z,100895.00
2022-10-05T10:45:20.584Z,100894.00
2022-10-05T10:47:52.930Z,100905.00
2022-10-05T10:51:11.454Z,100900.00
2022-10-05T10:54:12.189Z,100901.00
2022-10-05T10:56:56.055Z,100888.00
2022-10-05T11:00:01.232Z,100894.00
2022-10-05T11:02:55.588Z,100895.00
2022-10-05T11:05:48.855Z,100902.00
2022-10-05T11:08:47.383Z,100894.00
2022-10-05T11:11:45.989Z,100881.00
2022-10-05T11:14:35.984Z,100895.00
2022-10-05T11:17:29.351Z,100880.00
2022-10-05T11:20:14.692Z,100875.00
2022-10-05T11:22:55.513Z,100856.00
2022-10-05T11:25:50.013Z,100858.00
2022-10-05T11:28:41.198Z,100854.00
2022-10-05T11:31:47.927Z,100845.00
2022-10-05T11:34:55.497Z,100830.00
2022-10-05T11:38:03.207Z,100825.00
2022-10-05T11:41:18.411Z,100830.00
2022-10-05T11:44:07.241Z,100812.00
2022-10-05T11:46:44.573Z,100818.00
2022-10-05T11:49:30.751Z,100804.00
2022-10-05T11:52:07.172Z,100812.00
2022-10-05T11:55:10.286Z,100811.00
2022-10-05T11:57:43.958Z,100802.00
2022-10-05T12:00:19.158Z,100795.00
2022-10-05T12:03:03.295Z,100794.00
2022-10-05T12:05:35.985Z,100779.00
2022-10-05T12:08:17.783Z,100789.00
2022-10-05T12:10:53.921Z,100776.00
2022-10-05T12:13:33.166Z,100784.00
2022-10-05T12:16:08.698Z,100780.00
2022-10-05T12:18:49.627Z,100783.00
2022-10-05T12:21:27.969Z,100787.00
2022-10-05T12:24:00.234Z,100770.00
2022-10-05T12:26:32.317Z,100775.00
2022-10-05T12:29:07.811Z,100763.00
2022-10-05T12:31:46.468Z,100760.00
2022-10-05T12:34:23.905Z,100765.00
2022-10-05T12:37:09.788Z,100766.00
2022-10-05T12:39:45.981Z,100757.00
2022-10-05T12:42:24.046Z,100756.00
2022-10-05T12:45:18.073Z,100761.00
2022-10-05T12:48:13.091Z,100747.00
2022-10-05T12:50:43.121Z,100745.00
2022-10-05T12:53:29.741Z,100746.00
2022-10-05T12:56:04.571Z,100751.00
2022-10-05T12:58:43.377Z,100746.00
2022-10-05T13:01:19.899Z,100743.00
2022-10-05T13:03:55.933Z,100737.00
2022-10-05T13:06:29.525Z,100735.00
2022-10-05T13:09:06.455Z,100743.00
2022-10-05T13:11:42.702Z,100730.00
2022-10-05T13:14:23.370Z,100731.00
2022-10-05T13:17:00.283Z,100736.00
2022-10-05T13:19:40.035Z,100723.00
2022-10-05T13:22:20.608Z,100727.00
2022-10-05T13:24:59.482Z,100726.00
2022-10-05T13:27:32.333Z,100703.00
2022-10-05T13:30:04.290Z,100707.00
2022-10-05T13:32:37.103Z,100704.00
2022-10-05T13:35:24.531Z,100706.00
2022-10-05T13:38:02.697Z,100697.00
2022-10-05T13:40:35.917Z,100691.00
2022-10-05T13:43:10.807Z,100691.00
2022-10-05T13:45:44.556Z,100699.00
2022-10-05T13:48:23.469Z,100685.00
2022-10-05T13:51:03.801Z,100694.00
2022-10-05T13:53:41.106Z,100695.00
2022-10-05T13:56:17.825Z,100695.00
2022-10-05T13:58:51.680Z,100695.00
2022-10-05T14:01:28.166Z,100687.00
2022-10-05T14:04:07.654Z,100695.00
2022-10-05T14:06:38.672Z,100692.00
2022-10-05T14:09:13.577Z,100684.00
2022-10-05T14:11:49.498Z,100697.00
2022-10-05T14:14:26.325Z,100674.00
2022-10-05T14:16:56.393Z,100685.00
2022-10-05T14:19:27.962Z,100667.00
2022-10-05T14:22:02.265Z,100670.00
2022-10-05T14:24:43.530Z,100668.00
2022-10-05T14:27:21.943Z,100658.00
2022-10-05T14:29:57.962Z,100667.00
2022-10-05T14:32:28.047Z,100664.00
2022-10-05T14:35:05.026Z,100658.00
2022-10-05T14:37:45.183Z,100663.00
2022-10-05T14:40:26.838Z,100652.00
2022-10-05T14:42:55.086Z,100653.00
2022-10-05T14:45:24.966Z,100647.00
2022-10-05T14:47:54.505Z,100644.00
2022-10-05T14:50:29.414Z,100644.00
2022-10-05T14:53:17.620Z,100634.00
2022-10-05T14:56:01.960Z,100619.00
2022-10-05T14:58:46.200Z,100631.00
2022-10-05T15:01:22.403Z,100622.00
2022-10-05T15:04:02.171Z,100615.00
2022-10-05T15:06:37.490Z,100628.00
2022-10-05T15:09:25.327Z,100625.00
2022-10-05T15:11:55.527Z,100620.00
2022-10-05T15:14:26.303Z,100620.00
2022-10-05T15:16:58.648Z,100612.00
2022-10-05T15:19:37.346Z,100617.00
2022-10-05T15:22:19.810Z,100608.00
2022-10-05T15:24:59.271Z,100601.00
2022-10-05T15:27:32.597Z,100603.00
2022-10-05T15:30:09.559Z,100596.00
2022-10-05T15:32:49.902Z,100598.00
2022-10-05T15:35:46.044Z,100591.00
2022-10-05T15:38:21.241Z,100589.00
2022-10-05T15:41:10.857Z,100587.00
2022-10-05T15:43:48.392Z,100575.00
2022-10-05T15:46:19.000Z,100578.00
2022-10-05T15:48:56.962Z,100571.00
2022-10-05T15:51:40.656Z,100575.00
2022-10-05T15:54:37.219Z,100581.00
2022-10-05T15:57:11.836Z,100573.00
2022-10-05T15:59:48.813Z,100572.00
2022-10-05T16:02:21.782Z,100573.00
2022-10-05T16:05:01.074Z,100586.00
2022-10-05T16:07:58.026Z,100594.00
2022-10-05T16:10:27.436Z,100593.00
2022-10-05T16:13:14.475Z,100580.00
2022-10-05T16:15:48.505Z,100593.00
2022-10-05T16:18:42.777Z,100586.00
2022-10-05T16:21:20.398Z,100586.00
2022-10-05T16:24:05.033Z,100576.00
2022-10-05T16:26:45.724Z,100575.00
2022-10-05T16:29:23.932Z,100571.00
2022-10-05T16:31:58.475Z,100567.00
2022-10-05T16:34:45.197Z,100557.00
2022-10-05T16:37:23.587Z,100563.00
2022-10-05T16:39:58.160Z,100564.00
2022-10-05T16:42:42.030Z,100572.00
2022-10-05T16:45:26.080Z,100566.00
2022-10-05T16:48:03.784Z,100580.00
2022-10-05T16:50:39.296Z,100583.00
2022-10-05T16:53:20.200Z,100581.00
2022-10-05T16:55:51.324Z,100586.00
2022-10-05T16:58:25.605Z,100592.00
2022-10-05T17:01:09.045Z,100593.00
2022-10-05T17:03:50.998Z,100593.00
2022-10-05T17:06:37.976Z,100588.00
2022-10-05T17:09:23.790Z,100587.00
2022-10-05T17:12:04.045Z,100605.00
2022-10-05T17:14:40.709Z,100604.00
2022-10-05T17:17:39.408Z,100614.00
2022-10-05T17:20:21.166Z,100621.00
2022-10-05T17:22:52.357Z,100629.00
2022-10-05T17:25:28.955Z,100631.00
2022-10-05T17:28:00.201Z,100630.00
2022-10-05T17:30:48.407Z,100637.00
2022-10-05T17:33:23.285Z,100642.00
2022-10-05T17:36:08.365Z,100644.00
2022-10-05T17:38:47.922Z,100645.00
2022-10-05T17:41:26.373Z,100644.00
2022-10-05T17:44:26.218Z,100655.00
2022-10-05T17:46:56.573Z,100650.00
2022-10-05T17:50:08.753Z,100661.00
2022-10-05T17:52:50.734Z,100648.00
2022-10-05T17:55:30.352Z,100648.00
2022-10-05T17:58:00.982Z,100675.00
2022-10-05T18:00:42.066Z,100670.00
2022-10-05T18:03:49.354Z,100667.00
2022-10-05T18:06:41.606Z,100676.00
2022-10-05T18:09:34.362Z,100682.00
2022-10-05T18:12:28.716Z,100681.00
2022-10-05T18:15:08.176Z,100686.00
2022-10-05T18:17:45.036Z,100674.00
2022-10-05T18:20:18.105Z,100687.00
2022-10-05T18:22:50.905Z,100683.00
2022-10-05T18:25:25.877Z,100696.00
2022-10-05T18:28:18.000Z,100685.00
2022-10-05T18:31:03.027Z,100688.00
2022-10-05T18:33:45.116Z,100690.00
2022-10-05T18:36:28.241Z,100690.00
2022-10-05T18:39:04.103Z,100689.00
2022-10-05T18:41:46.056Z,100692.00
2022-10-05T18:44:30.472Z,100701.00
2022-10-05T18:47:07.179Z,100703.00
2022-10-05T18:49:47.192Z,100705.00
2022-10-05T18:52:22.883Z,100702.00
2022-10-05T18:55:01.129Z,100713.00
2022-10-05T18:57:45.451Z,100705.00
2022-10-05T19:00:17.947Z,100702.00
2022-10-05T19:02:50.691Z,100708.00
2022-10-05T19:05:46.903Z,100702.00
2022-10-05T19:08:26.677Z,100713.00
2022-10-05T19:11:00.782Z,100716.00
2022-10-05T19:13:38.643Z,100715.00
2022-10-05T19:16:22.440Z,100719.00
2022-10-05T19:19:29.511Z,100722.00
2022-10-05T19:22:08.253Z,100716.00
2022-10-05T19:24:48.370Z,100713.00
2022-10-05T19:27:27.167Z,100724.00
2022-10-05T19:30:15.540Z,100721.00
2022-10-05T19:33:12.467Z,100715.00
2022-10-05T19:35:51.486Z,100712.00
2022-10-05T19:38:26.446Z,100710.00
2022-10-05T19:41:01.410Z,100716.00
2022-10-05T19:43:54.264Z,100703.00
2022-10-05T19:46:30.793Z,100710.00
2022-10-05T19:49:00.157Z,100717.00
2022-10-05T19:51:30.413Z,100711.00
2022-10-05T19:54:02.079Z,100725.00
2022-10-05T19:56:33.841Z,100722.00
2022-10-05T19:59:13.188Z,100745.00
2022-10-05T20:01:45.383Z,100745.00
2022-10-05T20:04:13.250Z,100763.00
2022-10-05T20:06:42.141Z,100751.00
2022-10-05T20:09:21.198Z,100755.00
2022-10-05T20:11:53.309Z,100770.00
2022-10-05T20:14:30.822Z,100772.00
2022-10-05T20:17:44.451Z,100783.00
2022-10-05T20:20:23.449Z,100779.00
2022-10-05T20:22:51.200Z,100785.00
2022-10-05T20:25:33.839Z,100783.00
2022-10-05T20:28:02.959Z,100784.00
2022-10-05T20:30:33.901Z,100777.00
2022-10-05T20:33:03.049Z,100781.00
2022-10-05T20:35:30.999Z,100795.00
2022-10-05T20:38:00.292Z,100803.00
2022-10-05T20:40:29.055Z,100808.00
2022-10-05T20:42:57.467Z,100802.00
2022-10-05T20:45:25.293Z,100821.00
2022-10-05T20:47:54.978Z,100818.00
2022-10-05T20:50:22.801Z,100824.00
2022-10-05T20:52:50.766Z,100838.00
2022-10-05T20:55:18.532Z,100824.00
2022-10-05T20:57:47.277Z,100846.00
2022-10-05T21:00:15.554Z,100831.00
2022-10-05T21:02:43.269Z,100844.00
2022-10-05T21:05:12.488Z,100835.00
2022-10-05T21:07:40.832Z,100834.00
2022-10-05T21:10:09.363Z,100848.00
2022-10-05T21:12:37.120Z,100844.00
2022-10-05T21:15:05.972Z,100854.00
2022-10-05T21:17:35.105Z,100857.00
2022-10-05T21:20:02.992Z,100849.00
2022-10-05T21:22:32.136Z,100846.00
2022-10-05T21:24:59.857Z,100844.00
2022-10-05T21:27:27.551Z,100850.00
2022-10-05T21:29:55.336Z,100851.00
2022-10-05T21:32:24.352Z,100853.00
2022-10-05T21:34:52.091Z,100838.00
2022-10-05T21:37:20.017Z,100856.00
2022-10-05T21:39:49.121Z,100838.00
2022-10-05T21:42:16.852Z,100837.00
2022-10-05T21:44:44.740Z,100854.00
2022-10-05T21:47:12.627Z,100851.00
2022-10-05T21:49:40.438Z,100853.00
2022-10-05T21:52:08.159Z,100861.00
2022-10-05T21:54:36.025Z,100847.00
2022-10-05T21:57:05.538Z,100854.00
2022-10-05T21:59:35.366Z,100860.00
2022-10-05T22:02:03.480Z,100862.00
2022-10-05T22:04:31.180Z,100867.00
2022-10-05T22:06:59.228Z,100868.00
2022-10-05T22:09:26.960Z,100870.00
2022-10-05T22:11:54.912Z,100875.00
2022-10-05T22:14:24.239Z,100852.00
2022-10-05T22:16:53.987Z,100882.00
2022-10-05T22:19:21.835Z,100876.00
2022-10-05T22:21:49.680Z,100887.00
2022-10-05T22:24:17.417Z,100876.00
2022-10-05T22:26:47.667Z,100883.00
2022-10-05T22:29:16.903Z,100886.00
2022-10-05T22:31:48.627Z,100882.00
2022-10-05T22:34:16.606Z,100873.00
2022-10-05T22:36:44.361Z,100880.00
2022-10-05T22:39:12.050Z,100889.00
2022-10-05T22:41:39.767Z,100889.00
2022-10-05T22:44:07.471Z,100887.00
2022-10-05T22:46:35.335Z,100884.00
2022-10-05T22:49:04.537Z,100881.00
2022-10-05T22:51:32.457Z,100890.00
2022-10-05T22:54:00.167Z,100898.00
2022-10-05T22:56:27.902Z,100889.00
2022-10-05T22:58:55.705Z,100886.00
2022-10-05T23:01:23.424Z,100890.00
2022-10-05T23:03:51.167Z,100898.00
2022-10-05T23:06:22.412Z,100902.00
2022-10-05T23:08:50.363Z,100903.00
2022-10-05T23:11:19.654Z,100914.00
2022-10-05T23:13:47.362Z,100915.00
2022-10-05T23:16:17.270Z,100916.00
2022-10-05T23:18:46.746Z,100913.00
2022-10-05T23:21:14.598Z,100921.00
2022-10-05T23:23:47.315Z,100927.00
2022-10-05T23:26:15.674Z,100920.00
2022-10-05T23:28:46.725Z,100920.00
2022-10-05T23:31:16.673Z,100916.00
2022-10-05T23:33:44.867Z,100924.00
2022-10-05T23:36:16.078Z,100920.00
2022-10-05T23:38:45.951Z,100929.00
2022-10-05T23:41:14.484Z,100935.00
2022-10-05T23:43:42.207Z,100951.00
2022-10-05T23:46:10.794Z,100935.00
2022-10-05T23:48:38.985Z,100941.00
2022-10-05T23:51:08.002Z,100939.00
2022-10-05T23:53:35.846Z,100939.00
2022-10-05T23:56:05.192Z,100937.00
2022-10-05T23:58:32.988Z,100940.00
